createdAt,value
2022-11-01T00:01:53.484Z,15.17
2022-11-01T00:04:20.614Z,15.80
2022-11-01T00:06:48.378Z,15.87
2022-11-01T00:09:16.591Z,13.23
2022-11-01T00:11:43.383Z,13.97
2022-11-01T00:14:15.321Z,11.70
2022-11-01T00:16:42.831Z,13.93
2022-11-01T00:19:10.021Z,12.10
2022-11-01T00:21:37.100Z,13.70
2022-11-01T00:24:04.029Z,13.27
2022-11-01T00:26:30.771Z,13.00
2022-11-01T00:28:57.545Z,12.23
2022-11-01T00:31:24.508Z,11.27
2022-11-01T00:33:51.241Z,11.37
2022-11-01T00:36:18.271Z,12.37
2022-11-01T00:38:45.133Z,11.20
2022-11-01T00:41:12.930Z,11.77
2022-11-01T00:43:39.637Z,11.60
2022-11-01T00:46:06.380Z,10.20
2022-11-01T00:48:33.202Z,10.83
2022-11-01T00:50:59.883Z,10.50
2022-11-01T00:53:26.621Z,12.13
2022-11-01T00:55:53.399Z,10.40
2022-11-01T00:58:20.211Z,10.47
2022-11-01T01:00:48.155Z,11.93
2022-11-01T01:03:15.132Z,11.60
2022-11-01T01:05:41.879Z,10.57
2022-11-01T01:08:08.608Z,12.40
2022-11-01T01:10:35.582Z,11.00
2022-11-01T01:13:02.693Z,12.53
2022-11-01T01:15:29.717Z,11.40
2022-11-01T01:17:56.543Z,10.70
2022-11-01T01:20:23.999Z,11.03
2022-11-01T01:22:50.917Z,11.47
2022-11-01T01:25:18.003Z,11.27
2022-11-01T01:27:44.739Z,11.40
2022-11-01T01:30:12.245Z,11.30
2022-11-01T01:32:38.919Z,11.00
2022-11-01T01:35:06.328Z,11.70
2022-11-01T01:37:33.287Z,12.23
2022-11-01T01:40:00.217Z,11.13
2022-11-01T01:42:31.016Z,11.83
2022-11-01T01:45:10.862Z,11.03
2022-11-01T01:47:40.373Z,11.80
2022-11-01T01:50:30.953Z,11.20
2022-11-01T01:53:08.463Z,11.10
2022-11-01T01:55:38.105Z,11.73
2022-11-01T01:58:06.809Z,12.10
2022-11-01T02:00:33.770Z,14.03
2022-11-01T02:03:01.008Z,11.80
2022-11-01T02:05:39.101Z,12.47
2022-11-01T02:08:06.979Z,12.50
2022-11-01T02:10:34.587Z,12.90
2022-11-01T02:13:01.401Z,13.60
2022-11-01T02:15:59.370Z,12.50
2022-11-01T02:18:33.417Z,13.73
2022-11-01T02:21:08.955Z,14.93
2022-11-01T02:24:20.786Z,13.53
2022-11-01T02:26:56.495Z,13.83
2022-11-01T02:29:35.196Z,12.97
2022-11-01T02:32:26.987Z,13.83
2022-11-01T02:35:26.991Z,13.80
2022-11-01T02:38:05.277Z,11.90
2022-11-01T02:40:52.487Z,13.47
2022-11-01T02:43:24.451Z,12.40
2022-11-01T02:45:51.908Z,12.17
2022-11-01T02:48:21.759Z,12.20
2022-11-01T02:50:56.614Z,10.90
2022-11-01T02:53:23.619Z,11.60
2022-11-01T02:55:54.161Z,11.40
2022-11-01T02:58:25.034Z,12.73
2022-11-01T03:00:52.204Z,10.40
2022-11-01T03:03:34.650Z,10.70
2022-11-01T03:06:01.496Z,9.73
2022-11-01T03:08:38.614Z,10.63
2022-11-01T03:11:11.275Z,11.40
2022-11-01T03:13:46.986Z,11.33
2022-11-01T03:16:32.134Z,13.00
2022-11-01T03:19:07.758Z,13.90
2022-11-01T03:21:42.109Z,14.47
2022-11-01T03:24:24.807Z,14.30
2022-11-01T03:27:00.762Z,13.80
2022-11-01T03:29:30.807Z,14.03
2022-11-01T03:31:59.431Z,14.57
2022-11-01T03:34:26.296Z,13.67
2022-11-01T03:36:57.725Z,13.70
2022-11-01T03:39:51.922Z,14.53
2022-11-01T03:42:22.439Z,14.03
2022-11-01T03:44:54.216Z,14.13
2022-11-01T03:47:21.059Z,14.83
2022-11-01T03:49:47.830Z,14.37
2022-11-01T03:52:14.499Z,13.73
2022-11-01T03:54:41.220Z,15.63
2022-11-01T03:57:08.002Z,15.37
2022-11-01T03:59:34.830Z,14.10
2022-11-01T04:02:01.641Z,15.63
2022-11-01T04:04:28.551Z,14.83
2022-11-01T04:06:55.263Z,14.10
2022-11-01T04:09:21.970Z,16.57
2022-11-01T04:11:48.687Z,15.43
2022-11-01T04:14:33.833Z,15.23
2022-11-01T04:17:19.321Z,15.83
2022-11-01T04:20:04.932Z,13.20
2022-11-01T04:22:31.714Z,12.73
2022-11-01T04:24:58.415Z,13.30
2022-11-01T04:27:25.130Z,12.97
2022-11-01T04:29:51.826Z,13.60
2022-11-01T04:32:18.507Z,15.40
2022-11-01T04:34:45.300Z,13.80
2022-11-01T04:37:12.362Z,14.03
2022-11-01T04:39:39.219Z,14.10
2022-11-01T04:42:05.989Z,14.30
2022-11-01T04:44:32.722Z,13.70
2022-11-01T04:46:59.490Z,15.30
2022-11-01T04:49:26.261Z,15.40
2022-11-01T04:51:52.963Z,15.87
2022-11-01T04:54:19.704Z,16.67
2022-11-01T04:56:46.397Z,15.30
2022-11-01T04:59:13.123Z,16.70
2022-11-01T05:01:39.913Z,16.50
2022-11-01T05:04:06.693Z,15.60
2022-11-01T05:06:33.377Z,16.23
2022-11-01T05:09:00.170Z,16.33
2022-11-01T05:11:27.011Z,16.40
2022-11-01T05:13:53.760Z,14.77
2022-11-01T05:16:21.275Z,14.90
2022-11-01T05:18:48.805Z,14.67
2022-11-01T05:21:15.603Z,14.53
2022-11-01T05:23:42.383Z,16.60
2022-11-01T05:26:09.133Z,16.67
2022-11-01T05:28:35.851Z,17.10
2022-11-01T05:31:02.640Z,15.43
2022-11-01T05:33:29.370Z,16.73
2022-11-01T05:35:56.167Z,16.07
2022-11-01T05:38:22.951Z,15.80
2022-11-01T05:40:50.503Z,15.63
2022-11-01T05:43:17.243Z,15.17
2022-11-01T05:45:44.200Z,16.03
2022-11-01T05:48:12.052Z,14.07
2022-11-01T05:50:38.757Z,15.17
2022-11-01T05:53:10.101Z,15.13
2022-11-01T05:55:37.251Z,16.20
2022-11-01T05:58:04.264Z,15.43
2022-11-01T06:00:31.642Z,17.90
2022-11-01T06:02:59.816Z,15.77
2022-11-01T06:05:27.892Z,16.07
2022-11-01T06:07:54.685Z,16.13
2022-11-01T06:10:21.591Z,14.73
2022-11-01T06:12:48.398Z,14.20
2022-11-01T06:15:15.213Z,14.80
2022-11-01T06:17:41.944Z,15.03
2022-11-01T06:20:09.234Z,14.00
2022-11-01T06:22:36.680Z,13.43
2022-11-01T06:25:04.111Z,14.20
2022-11-01T06:27:30.939Z,13.30
2022-11-01T06:29:57.714Z,12.80
2022-11-01T06:32:24.411Z,12.63
2022-11-01T06:34:51.124Z,11.73
2022-11-01T06:37:17.834Z,13.17
2022-11-01T06:39:44.528Z,12.40
2022-11-01T06:42:11.239Z,12.23
2022-11-01T06:44:37.970Z,14.57
2022-11-01T06:47:04.980Z,12.57
2022-11-01T06:49:31.799Z,11.20
2022-11-01T06:51:58.534Z,11.10
2022-11-01T06:54:25.759Z,10.57
2022-11-01T06:56:52.503Z,12.37
2022-11-01T06:59:19.237Z,13.80
2022-11-01T07:01:46.066Z,12.80
2022-11-01T07:04:13.091Z,12.10
2022-11-01T07:06:40.120Z,11.13
2022-11-01T07:09:06.865Z,7.40
2022-11-01T07:11:33.980Z,7.47
2022-11-01T07:14:00.759Z,7.40
2022-11-01T07:16:27.854Z,9.20
2022-11-01T07:18:54.682Z,12.73
2022-11-01T07:21:21.700Z,11.40
2022-11-01T07:23:48.723Z,11.00
2022-11-01T07:26:15.586Z,11.00
2022-11-01T07:28:42.351Z,10.30
2022-11-01T07:31:09.033Z,9.47
2022-11-01T07:33:35.827Z,10.43
2022-11-01T07:36:03.383Z,8.70
2022-11-01T07:38:52.910Z,8.87
2022-11-01T07:41:19.585Z,7.10
2022-11-01T07:43:46.291Z,7.63
2022-11-01T07:46:13.008Z,6.87
2022-11-01T07:48:39.870Z,6.97
2022-11-01T07:51:08.141Z,7.10
2022-11-01T07:53:35.035Z,7.20
2022-11-01T07:56:02.274Z,9.00
2022-11-01T07:58:29.208Z,8.53
2022-11-01T08:00:56.436Z,10.20
2022-11-01T08:03:23.908Z,11.87
2022-11-01T08:05:50.636Z,10.23
2022-11-01T08:08:18.239Z,9.80
2022-11-01T08:10:45.176Z,9.57
2022-11-01T08:13:19.315Z,10.10
2022-11-01T08:15:47.390Z,9.80
2022-11-01T08:18:15.037Z,8.77
2022-11-01T08:20:42.208Z,9.23
2022-11-01T08:23:09.192Z,8.77
2022-11-01T08:25:36.144Z,8.13
2022-11-01T08:28:10.525Z,7.60
2022-11-01T08:30:39.002Z,7.13
2022-11-01T08:33:06.720Z,3.90
2022-11-01T08:35:34.504Z,1.83
2022-11-01T08:38:03.176Z,1.50
2022-11-01T08:40:30.379Z,1.50
2022-11-01T08:42:57.490Z,2.20
2022-11-01T08:45:25.106Z,1.73
2022-11-01T08:48:00.741Z,1.47
2022-11-01T08:50:27.878Z,1.30
2022-11-01T08:52:54.630Z,1.20
2022-11-01T08:55:21.889Z,1.17
2022-11-01T08:57:48.953Z,1.63
2022-11-01T09:00:16.774Z,1.20
2022-11-01T09:02:43.528Z,3.33
2022-11-01T09:05:10.385Z,5.10
2022-11-01T09:07:37.928Z,4.40
2022-11-01T09:10:05.499Z,3.47
2022-11-01T09:12:32.299Z,3.73
2022-11-01T09:14:59.079Z,3.90
2022-11-01T09:17:25.788Z,3.80
2022-11-01T09:19:52.568Z,3.30
2022-11-01T09:22:19.343Z,4.60
2022-11-01T09:24:46.041Z,5.13
2022-11-01T09:27:12.874Z,4.90
2022-11-01T09:29:40.276Z,3.97
2022-11-01T09:32:06.976Z,5.27
2022-11-01T09:34:34.327Z,4.90
2022-11-01T09:37:01.574Z,3.63
2022-11-01T09:39:28.309Z,3.70
2022-11-01T09:41:59.913Z,3.93
2022-11-01T09:44:37.424Z,3.70
2022-11-01T09:47:25.394Z,3.60
2022-11-01T09:50:11.947Z,3.90
2022-11-01T09:52:41.011Z,3.40
2022-11-01T09:55:21.910Z,4.00
2022-11-01T09:58:02.298Z,2.47
2022-11-01T10:00:35.905Z,2.10
2022-11-01T10:03:21.279Z,1.53
2022-11-01T10:06:02.557Z,1.60
2022-11-01T10:08:47.873Z,1.70
2022-11-01T10:11:51.280Z,1.97
2022-11-01T10:14:28.228Z,2.03
2022-11-01T10:17:16.255Z,1.80
2022-11-01T10:19:49.699Z,1.40
2022-11-01T10:22:37.876Z,1.10
2022-11-01T10:25:19.792Z,1.20
2022-11-01T10:27:58.498Z,1.30
2022-11-01T10:30:27.254Z,1.30
2022-11-01T10:33:02.682Z,1.10
2022-11-01T10:35:35.190Z,1.40
2022-11-01T10:38:59.220Z,1.10
2022-11-01T10:41:41.194Z,1.13
2022-11-01T10:44:16.450Z,1.03
2022-11-01T10:46:47.972Z,1.10
2022-11-01T10:52:28.344Z,1.00
2022-11-01T10:54:56.699Z,1.00
2022-11-01T10:57:38.238Z,0.90
2022-11-01T11:00:14.110Z,1.10
2022-11-01T11:02:46.065Z,1.10
2022-11-01T11:05:14.010Z,1.00
2022-11-01T11:07:41.415Z,1.00
2022-11-01T11:10:27.330Z,0.90
2022-11-01T11:12:59.170Z,0.97
2022-11-01T11:15:45.731Z,0.97
2022-11-01T11:18:23.802Z,0.90
2022-11-01T11:20:52.635Z,1.10
2022-11-01T11:23:22.099Z,0.80
2022-11-01T11:25:50.520Z,1.10
2022-11-01T11:28:30.427Z,1.10
2022-11-01T11:31:11.107Z,1.00
2022-11-01T11:33:38.019Z,1.20
2022-11-01T11:36:05.651Z,0.90
2022-11-01T11:38:51.283Z,1.00
2022-11-01T11:41:36.636Z,0.90
2022-11-01T11:44:03.755Z,0.90
2022-11-01T11:46:30.806Z,1.40
2022-11-01T11:49:07.033Z,1.30
2022-11-01T11:51:38.114Z,1.20
2022-11-01T11:54:37.554Z,1.20
2022-11-01T11:57:16.499Z,1.20
2022-11-01T12:02:24.933Z,1.10
2022-11-01T12:05:01.579Z,1.10
2022-11-01T12:07:35.112Z,1.33
2022-11-01T12:10:26.100Z,1.10
2022-11-01T12:12:54.277Z,1.60
2022-11-01T12:15:29.100Z,1.20
2022-11-01T12:17:56.450Z,1.23
2022-11-01T12:20:35.443Z,1.50
2022-11-01T12:23:24.154Z,1.10
2022-11-01T12:25:52.090Z,1.30
2022-11-01T12:28:36.469Z,1.20
2022-11-01T12:31:17.892Z,1.33
2022-11-01T12:33:50.515Z,1.30
2022-11-01T12:36:22.586Z,1.00
2022-11-01T12:38:52.328Z,1.10
2022-11-01T12:41:35.251Z,1.20
2022-11-01T12:44:28.931Z,1.20
2022-11-01T12:47:28.025Z,1.30
2022-11-01T12:50:07.118Z,1.10
2022-11-01T12:52:43.966Z,1.30
2022-11-01T12:55:32.159Z,1.40
2022-11-01T12:57:58.989Z,1.27
2022-11-01T13:00:49.236Z,1.20
2022-11-01T13:03:15.894Z,1.03
2022-11-01T13:05:42.525Z,1.20
2022-11-01T13:08:27.970Z,1.77
2022-11-01T13:11:03.288Z,1.17
2022-11-01T13:13:50.167Z,1.67
2022-11-01T13:16:25.986Z,1.30
2022-11-01T13:18:58.833Z,1.20
2022-11-01T13:21:42.951Z,1.13
2022-11-01T13:24:44.242Z,1.50
2022-11-01T13:27:24.421Z,1.40
2022-11-01T13:30:01.724Z,1.27
2022-11-01T13:32:34.538Z,1.20
2022-11-01T13:35:38.961Z,1.70
2022-11-01T13:38:24.062Z,1.80
2022-11-01T13:41:09.480Z,1.70
2022-11-01T13:44:06.595Z,2.70
2022-11-01T13:46:41.831Z,1.63
2022-11-01T13:49:08.495Z,1.20
2022-11-01T13:52:09.072Z,1.60
2022-11-01T13:54:54.386Z,1.20
2022-11-01T13:57:25.649Z,1.40
2022-11-01T14:00:06.959Z,1.47
2022-11-01T14:02:42.387Z,1.80
2022-11-01T14:05:12.668Z,2.10
2022-11-01T14:07:45.420Z,1.40
2022-11-01T14:10:18.037Z,1.20
2022-11-01T14:13:05.585Z,1.70
2022-11-01T14:15:34.780Z,1.20
2022-11-01T14:18:13.347Z,1.90
2022-11-01T14:20:42.820Z,2.33
2022-11-01T14:23:28.113Z,1.90
2022-11-01T14:26:22.834Z,1.83
2022-11-01T14:28:51.547Z,1.80
2022-11-01T14:31:22.043Z,1.10
2022-11-01T14:33:48.930Z,1.20
2022-11-01T14:36:19.530Z,1.60
2022-11-01T14:38:52.402Z,1.83
2022-11-01T14:41:20.547Z,1.70
2022-11-01T14:43:52.288Z,1.93
2022-11-01T14:46:25.122Z,1.67
2022-11-01T14:48:57.609Z,1.93
2022-11-01T14:51:28.559Z,1.93
2022-11-01T14:54:06.789Z,2.37
2022-11-01T14:56:40.919Z,2.07
2022-11-01T14:59:28.494Z,2.20
2022-11-01T15:02:02.714Z,1.50
2022-11-01T15:04:32.721Z,1.57
2022-11-01T15:07:00.623Z,1.43
2022-11-01T15:09:30.371Z,13.30
2022-11-01T15:12:09.110Z,6.50
2022-11-01T15:14:41.617Z,3.07
2022-11-01T15:17:22.623Z,3.07
2022-11-01T15:19:54.404Z,12.70
2022-11-01T15:22:27.846Z,18.03
2022-11-01T15:25:00.454Z,17.60
2022-11-01T15:27:41.879Z,13.10
2022-11-01T15:30:20.291Z,11.77
2022-11-01T15:33:10.426Z,8.83
2022-11-01T15:35:37.101Z,7.10
2022-11-01T15:38:03.832Z,4.53
2022-11-01T15:40:35.042Z,2.57
2022-11-01T15:43:03.683Z,2.70
2022-11-01T15:45:34.418Z,2.70
2022-11-01T15:48:08.565Z,2.60
2022-11-01T15:50:39.256Z,2.63
2022-11-01T15:53:12.562Z,2.60
2022-11-01T15:55:45.186Z,3.73
2022-11-01T15:58:20.052Z,5.00
2022-11-01T16:00:51.020Z,4.17
2022-11-01T16:03:27.632Z,4.87
2022-11-01T16:05:59.729Z,4.90
2022-11-01T16:08:42.091Z,4.40
2022-11-01T16:11:09.436Z,4.30
2022-11-01T16:13:37.413Z,3.73
2022-11-01T16:16:11.390Z,4.57
2022-11-01T16:18:41.593Z,5.77
2022-11-01T16:21:20.372Z,10.53
2022-11-01T16:23:57.906Z,11.70
2022-11-01T16:26:24.636Z,14.00
2022-11-01T16:28:53.314Z,11.17
2022-11-01T16:31:28.444Z,9.00
2022-11-01T16:33:57.133Z,5.00
2022-11-01T16:36:32.055Z,4.67
2022-11-01T16:38:58.922Z,4.60
2022-11-01T16:41:40.701Z,4.67
2022-11-01T16:44:15.979Z,4.27
2022-11-01T16:46:43.155Z,4.10
2022-11-01T16:49:20.444Z,4.90
2022-11-01T16:51:47.569Z,3.90
2022-11-01T16:54:14.939Z,4.90
2022-11-01T16:56:48.186Z,4.00
2022-11-01T16:59:33.891Z,4.03
2022-11-01T17:02:02.495Z,5.27
2022-11-01T17:04:29.716Z,5.13
2022-11-01T17:06:59.702Z,4.83
2022-11-01T17:09:29.373Z,3.93
2022-11-01T17:11:56.255Z,3.80
2022-11-01T17:14:23.009Z,4.50
2022-11-01T17:16:52.071Z,3.43
2022-11-01T17:19:21.832Z,3.70
2022-11-01T17:21:50.258Z,3.90
2022-11-01T17:24:20.381Z,4.03
2022-11-01T17:26:48.697Z,3.60
2022-11-01T17:29:15.487Z,3.80
2022-11-01T17:31:42.201Z,3.90
2022-11-01T17:34:09.034Z,4.53
2022-11-01T17:36:37.554Z,4.80
2022-11-01T17:39:04.578Z,3.73
2022-11-01T17:41:31.346Z,4.00
2022-11-01T17:43:58.163Z,3.87
2022-11-01T17:46:26.052Z,3.60
2022-11-01T17:48:52.794Z,3.70
2022-11-01T17:51:20.050Z,3.70
2022-11-01T17:53:47.010Z,4.37
2022-11-01T17:56:13.689Z,5.87
2022-11-01T17:58:40.377Z,5.87
2022-11-01T18:01:08.317Z,5.57
2022-11-01T18:03:35.197Z,4.57
2022-11-01T18:06:02.022Z,4.40
2022-11-01T18:08:33.554Z,4.33
2022-11-01T18:11:21.851Z,4.13
2022-11-01T18:14:18.030Z,3.90
2022-11-01T18:16:56.757Z,4.33
2022-11-01T18:19:59.091Z,4.30
2022-11-01T18:22:49.546Z,3.80
2022-11-01T18:25:26.992Z,4.77
2022-11-01T18:27:56.263Z,3.77
2022-11-01T18:30:23.403Z,4.57
2022-11-01T18:33:04.897Z,5.30
2022-11-01T18:35:37.664Z,4.40
2022-11-01T18:38:17.963Z,4.60
2022-11-01T18:41:01.575Z,4.80
2022-11-01T18:43:37.897Z,4.47
2022-11-01T18:46:31.274Z,4.17
2022-11-01T18:49:01.920Z,3.83
2022-11-01T18:51:33.738Z,3.60
2022-11-01T18:54:09.393Z,3.47
2022-11-01T18:56:40.687Z,3.20
2022-11-01T18:59:20.415Z,3.70
2022-11-01T19:01:54.288Z,3.50
2022-11-01T19:04:26.210Z,3.53
2022-11-01T19:07:12.552Z,3.90
2022-11-01T19:09:48.426Z,4.17
2022-11-01T19:12:25.495Z,3.40
2022-11-01T19:15:21.843Z,3.50
2022-11-01T19:17:56.741Z,5.00
2022-11-01T19:20:35.595Z,5.60
2022-11-01T19:23:15.141Z,8.33
2022-11-01T19:25:45.680Z,7.63
2022-11-01T19:28:15.422Z,5.83
2022-11-01T19:30:51.208Z,5.50
2022-11-01T19:33:34.481Z,4.40
2022-11-01T19:36:11.362Z,4.10
2022-11-01T19:38:43.226Z,3.70
2022-11-01T19:41:13.743Z,4.33
2022-11-01T19:43:40.687Z,4.57
2022-11-01T19:46:16.680Z,3.80
2022-11-01T19:48:43.495Z,3.40
2022-11-01T19:51:23.773Z,3.83
2022-11-01T19:53:51.446Z,4.17
2022-11-01T19:56:23.995Z,4.23
2022-11-01T19:58:54.979Z,4.43
2022-11-01T20:01:36.222Z,4.57
2022-11-01T20:04:31.202Z,5.07
2022-11-01T20:07:02.124Z,5.60
2022-11-01T20:09:32.513Z,5.83
2022-11-01T20:11:59.294Z,6.83
2022-11-01T20:14:26.063Z,5.87
2022-11-01T20:16:52.822Z,5.13
2022-11-01T20:19:20.462Z,5.23
2022-11-01T20:21:47.562Z,4.50
2022-11-01T20:24:15.650Z,4.23
2022-11-01T20:26:42.790Z,4.70
2022-11-01T20:29:10.034Z,4.80
2022-11-01T20:31:37.187Z,4.10
2022-11-01T20:34:04.258Z,4.83
2022-11-01T20:36:31.078Z,4.67
2022-11-01T20:38:57.847Z,4.37
2022-11-01T20:41:24.597Z,4.40
2022-11-01T20:43:51.345Z,4.63
2022-11-01T20:46:18.215Z,4.97
2022-11-01T20:48:48.261Z,4.93
2022-11-01T20:51:15.092Z,5.23
2022-11-01T20:53:41.982Z,5.13
2022-11-01T20:56:09.475Z,4.97
2022-11-01T20:58:40.333Z,4.63
2022-11-01T21:01:15.029Z,5.20
2022-11-01T21:03:41.828Z,5.20
2022-11-01T21:06:16.946Z,5.50
2022-11-01T21:08:47.071Z,4.67
2022-11-01T21:11:22.280Z,3.63
2022-11-01T21:13:51.697Z,4.30
2022-11-01T21:16:29.326Z,3.30
2022-11-01T21:19:02.151Z,3.47
2022-11-01T21:21:45.331Z,3.77
2022-11-01T21:24:35.108Z,4.10
2022-11-01T21:27:23.486Z,3.10
2022-11-01T21:29:51.447Z,3.47
2022-11-01T21:32:42.528Z,3.50
2022-11-01T21:35:20.869Z,3.87
2022-11-01T21:37:54.231Z,4.10
2022-11-01T21:40:29.913Z,4.07
2022-11-01T21:42:57.651Z,3.57
2022-11-01T21:45:29.660Z,4.30
2022-11-01T21:48:02.998Z,3.73
2022-11-01T21:50:30.184Z,3.53
2022-11-01T21:52:56.869Z,3.53
2022-11-01T21:55:23.630Z,3.97
2022-11-01T21:57:50.418Z,3.90
2022-11-01T22:00:17.313Z,3.63
2022-11-01T22:02:44.097Z,3.20
2022-11-01T22:05:10.856Z,4.40
2022-11-01T22:07:37.588Z,4.47
2022-11-01T22:10:04.798Z,3.40
2022-11-01T22:12:32.124Z,3.80
2022-11-01T22:14:59.026Z,4.40
2022-11-01T22:17:25.993Z,4.10
2022-11-01T22:19:52.803Z,3.87
2022-11-01T22:22:19.562Z,3.47
2022-11-01T22:24:46.295Z,4.00
2022-11-01T22:27:13.015Z,3.63
2022-11-01T22:29:39.707Z,3.57
2022-11-01T22:32:06.411Z,3.37
2022-11-01T22:34:33.149Z,4.40
2022-11-01T22:37:00.657Z,3.70
2022-11-01T22:39:29.750Z,5.80
2022-11-01T22:41:56.483Z,7.80
2022-11-01T22:44:27.358Z,7.50
2022-11-01T22:46:58.940Z,6.07
2022-11-01T22:49:40.365Z,5.77
2022-11-01T22:52:12.900Z,5.13
2022-11-01T22:54:52.036Z,4.30
2022-11-01T22:57:22.551Z,5.10
2022-11-01T22:59:49.235Z,5.37
2022-11-01T23:02:33.541Z,6.33
2022-11-01T23:05:06.518Z,6.73
2022-11-01T23:07:34.670Z,6.47
2022-11-01T23:10:07.428Z,5.40
2022-11-01T23:12:55.223Z,6.20
2022-11-01T23:15:33.423Z,6.20
2022-11-01T23:18:11.486Z,5.60
2022-11-01T23:20:40.747Z,5.50
2022-11-01T23:23:17.980Z,6.53
2022-11-01T23:25:45.226Z,6.17
2022-11-01T23:28:13.138Z,6.53
2022-11-01T23:30:42.326Z,6.50
2022-11-01T23:33:12.788Z,6.33
2022-11-01T23:35:39.553Z,5.03
2022-11-01T23:38:32.645Z,5.87
2022-11-01T23:40:59.421Z,4.13
2022-11-01T23:43:40.945Z,3.67
2022-11-01T23:46:10.781Z,4.97
2022-11-01T23:48:43.140Z,4.57
2022-11-01T23:51:18.514Z,4.70
2022-11-01T23:53:47.070Z,5.23
2022-11-01T23:56:17.563Z,5.90
2022-11-01T23:58:44.307Z,4.60
